sensor_id;sensor_type;location;lat;lon;timestamp;pressure;altitude;pressure_sealevel;temperature;humidity
43770;BME280;6597;52.218;9.882;2023-01-25T00:01:02;102984.28;;;0.59;90.85
43770;BME280;6597;52.218;9.882;2023-01-25T00:03:29;102972.94;;;0.55;90.73
43770;BME280;6597;52.218;9.882;2023-01-25T00:05:59;102968.53;;;0.53;90.84
43770;BME280;6597;52.218;9.882;2023-01-25T00:08:25;102975.53;;;0.55;90.75
43770;BME280;6597;52.218;9.882;2023-01-25T00:10:53;102960.25;;;0.61;90.71
43770;BME280;6597;52.218;9.882;2023-01-25T00:13:20;102956.91;;;0.64;90.77
43770;BME280;6597;52.218;9.882;2023-01-25T00:15:46;102957.75;;;0.63;90.90
43770;BME280;6597;52.218;9.882;2023-01-25T00:18:14;102956.69;;;0.58;91.03
43770;BME280;6597;52.218;9.882;2023-01-25T00:20:40;102962.09;;;0.64;91.16
43770;BME280;6597;52.218;9.882;2023-01-25T00:23:07;102955.91;;;0.60;90.67
43770;BME280;6597;52.218;9.882;2023-01-25T00:25:34;102956.44;;;0.52;90.67
43770;BME280;6597;52.218;9.882;2023-01-25T00:28:00;102943.38;;;0.49;90.10
43770;BME280;6597;52.218;9.882;2023-01-25T00:30:27;102946.78;;;0.48;90.60
43770;BME280;6597;52.218;9.882;2023-01-25T00:32:57;102935.56;;;0.47;90.72
43770;BME280;6597;52.218;9.882;2023-01-25T00:35:30;102934.81;;;0.50;90.84
43770;BME280;6597;52.218;9.882;2023-01-25T00:38:00;102940.16;;;0.54;90.73
43770;BME280;6597;52.218;9.882;2023-01-25T00:40:27;102936.59;;;0.51;91.17
43770;BME280;6597;52.218;9.882;2023-01-25T00:42:53;102932.94;;;0.46;91.08
43770;BME280;6597;52.218;9.882;2023-01-25T00:45:20;102925.94;;;0.43;91.43
43770;BME280;6597;52.218;9.882;2023-01-25T00:47:46;102921.59;;;0.42;91.86
43770;BME280;6597;52.218;9.882;2023-01-25T00:50:13;102929.16;;;0.38;92.16
43770;BME280;6597;52.218;9.882;2023-01-25T00:52:41;102927.63;;;0.43;92.15
43770;BME280;6597;52.218;9.882;2023-01-25T00:55:08;102913.78;;;0.41;92.24
43770;BME280;6597;52.218;9.882;2023-01-25T00:57:35;102920.84;;;0.45;92.17
43770;BME280;6597;52.218;9.882;2023-01-25T01:00:02;102915.47;;;0.40;92.50
43770;BME280;6597;52.218;9.882;2023-01-25T01:02:29;102918.88;;;0.39;92.87
43770;BME280;6597;52.218;9.882;2023-01-25T01:04:56;102914.59;;;0.40;93.01
43770;BME280;6597;52.218;9.882;2023-01-25T01:07:22;102915.53;;;0.42;93.39
43770;BME280;6597;52.218;9.882;2023-01-25T01:09:52;102915.53;;;0.42;93.18
43770;BME280;6597;52.218;9.882;2023-01-25T01:12:18;102918.06;;;0.40;93.13
43770;BME280;6597;52.218;9.882;2023-01-25T01:14:45;102922.34;;;0.40;93.41
43770;BME280;6597;52.218;9.882;2023-01-25T01:17:11;102916.31;;;0.39;93.82
43770;BME280;6597;52.218;9.882;2023-01-25T01:19:38;102924.81;;;0.37;93.93
43770;BME280;6597;52.218;9.882;2023-01-25T01:22:06;102918.81;;;0.38;93.99
43770;BME280;6597;52.218;9.882;2023-01-25T01:24:32;102920.59;;;0.39;94.37
43770;BME280;6597;52.218;9.882;2023-01-25T01:27:00;102911.88;;;0.16;95.44
43770;BME280;6597;52.218;9.882;2023-01-25T01:29:26;102914.75;;;0.23;95.79
43770;BME280;6597;52.218;9.882;2023-01-25T01:31:53;102912.88;;;0.19;95.26
43770;BME280;6597;52.218;9.882;2023-01-25T01:34:23;102908.22;;;0.11;95.52
43770;BME280;6597;52.218;9.882;2023-01-25T01:36:49;102904.63;;;-0.52;99.09
43770;BME280;6597;52.218;9.882;2023-01-25T01:39:16;102912.13;;;-0.18;98.93
43770;BME280;6597;52.218;9.882;2023-01-25T01:41:43;102904.53;;;-0.15;98.40
43770;BME280;6597;52.218;9.882;2023-01-25T01:44:16;102902.81;;;-0.15;98.49
43770;BME280;6597;52.218;9.882;2023-01-25T01:46:50;102910.69;;;-0.12;99.30
43770;BME280;6597;52.218;9.882;2023-01-25T01:49:22;102900.44;;;-0.10;98.58
43770;BME280;6597;52.218;9.882;2023-01-25T01:51:57;102894.59;;;-0.06;98.06
43770;BME280;6597;52.218;9.882;2023-01-25T01:54:31;102889.28;;;-0.09;98.11
43770;BME280;6597;52.218;9.882;2023-01-25T01:57:04;102890.94;;;-0.11;98.38
43770;BME280;6597;52.218;9.882;2023-01-25T01:59:36;102874.09;;;-0.22;99.49
43770;BME280;6597;52.218;9.882;2023-01-25T02:02:04;102875.56;;;-0.08;98.35
43770;BME280;6597;52.218;9.882;2023-01-25T02:04:32;102876.00;;;-0.18;98.85
43770;BME280;6597;52.218;9.882;2023-01-25T02:07:02;102879.00;;;-0.28;99.71
43770;BME280;6597;52.218;9.882;2023-01-25T02:09:33;102870.78;;;-0.20;100.00
43770;BME280;6597;52.218;9.882;2023-01-25T02:12:02;102873.03;;;-0.07;98.84
43770;BME280;6597;52.218;9.882;2023-01-25T02:14:30;102869.25;;;-0.15;98.59
43770;BME280;6597;52.218;9.882;2023-01-25T02:16:59;102875.44;;;-0.11;99.15
43770;BME280;6597;52.218;9.882;2023-01-25T02:19:39;102872.03;;;-0.10;99.24
43770;BME280;6597;52.218;9.882;2023-01-25T02:22:10;102879.03;;;-0.08;99.62
43770;BME280;6597;52.218;9.882;2023-01-25T02:24:46;102881.59;;;-0.08;99.72
43770;BME280;6597;52.218;9.882;2023-01-25T02:27:16;102865.03;;;-0.13;100.00
43770;BME280;6597;52.218;9.882;2023-01-25T02:29:44;102865.25;;;-0.08;100.00
43770;BME280;6597;52.218;9.882;2023-01-25T02:32:12;102866.25;;;-0.05;99.41
43770;BME280;6597;52.218;9.882;2023-01-25T02:34:38;102862.19;;;0.01;99.23
43770;BME280;6597;52.218;9.882;2023-01-25T02:37:08;102869.06;;;0.00;99.45
43770;BME280;6597;52.218;9.882;2023-01-25T02:39:34;102857.28;;;0.07;99.45
43770;BME280;6597;52.218;9.882;2023-01-25T02:42:01;102863.13;;;0.03;99.65
43770;BME280;6597;52.218;9.882;2023-01-25T02:44:31;102865.84;;;0.06;99.65
43770;BME280;6597;52.218;9.882;2023-01-25T02:46:57;102871.75;;;0.03;99.61
43770;BME280;6597;52.218;9.882;2023-01-25T02:49:24;102871.47;;;-0.03;100.00
43770;BME280;6597;52.218;9.882;2023-01-25T02:51:52;102864.75;;;0.01;100.00
43770;BME280;6597;52.218;9.882;2023-01-25T02:54:22;102857.16;;;0.04;100.00
43770;BME280;6597;52.218;9.882;2023-01-25T02:56:50;102848.75;;;0.09;100.00
43770;BME280;6597;52.218;9.882;2023-01-25T02:59:17;102854.75;;;0.08;100.00
43770;BME280;6597;52.218;9.882;2023-01-25T03:01:49;102841.72;;;0.05;100.00
43770;BME280;6597;52.218;9.882;2023-01-25T03:04:16;102842.84;;;0.12;100.00
43770;BME280;6597;52.218;9.882;2023-01-25T03:06:43;102843.59;;;0.09;100.00
43770;BME280;6597;52.218;9.882;2023-01-25T03:09:10;102836.66;;;0.08;100.00
43770;BME280;6597;52.218;9.882;2023-01-25T03:11:41;102832.63;;;0.15;100.00
43770;BME280;6597;52.218;9.882;2023-01-25T03:14:08;102832.25;;;0.06;100.00
43770;BME280;6597;52.218;9.882;2023-01-25T03:16:35;102828.16;;;0.11;100.00
43770;BME280;6597;52.218;9.882;2023-01-25T03:19:03;102815.25;;;0.11;100.00
43770;BME280;6597;52.218;9.882;2023-01-25T03:21:29;102813.38;;;0.07;100.00
43770;BME280;6597;52.218;9.882;2023-01-25T03:23:58;102819.06;;;-0.01;100.00
43770;BME280;6597;52.218;9.882;2023-01-25T03:26:30;102815.06;;;0.06;100.00
43770;BME280;6597;52.218;9.882;2023-01-25T03:29:18;102819.28;;;0.04;100.00
43770;BME280;6597;52.218;9.882;2023-01-25T03:31:47;102817.19;;;-0.05;100.00
43770;BME280;6597;52.218;9.882;2023-01-25T03:34:15;102821.53;;;-0.04;100.00
43770;BME280;6597;52.218;9.882;2023-01-25T03:36:42;102816.38;;;-0.04;100.00
43770;BME280;6597;52.218;9.882;2023-01-25T03:39:09;102815.63;;;-0.01;100.00
43770;BME280;6597;52.218;9.882;2023-01-25T03:41:39;102806.94;;;-0.03;100.00
43770;BME280;6597;52.218;9.882;2023-01-25T03:44:10;102813.84;;;-0.02;100.00
43770;BME280;6597;52.218;9.882;2023-01-25T03:46:37;102810.25;;;-0.06;100.00
43770;BME280;6597;52.218;9.882;2023-01-25T03:49:04;102808.31;;;-0.11;100.00
43770;BME280;6597;52.218;9.882;2023-01-25T03:51:33;102802.97;;;-0.16;100.00
43770;BME280;6597;52.218;9.882;2023-01-25T03:54:00;102796.22;;;-0.12;100.00
43770;BME280;6597;52.218;9.882;2023-01-25T03:56:26;102797.13;;;-0.12;100.00
43770;BME280;6597;52.218;9.882;2023-01-25T03:59:03;102787.78;;;-0.08;100.00
43770;BME280;6597;52.218;9.882;2023-01-25T04:01:31;102789.31;;;-0.13;100.00
43770;BME280;6597;52.218;9.882;2023-01-25T04:03:58;102794.59;;;-0.10;100.00
43770;BME280;6597;52.218;9.882;2023-01-25T04:06:25;102793.00;;;-0.07;100.00
43770;BME280;6597;52.218;9.882;2023-01-25T04:08:53;102787.16;;;-0.03;100.00
43770;BME280;6597;52.218;9.882;2023-01-25T04:11:22;102784.63;;;-0.01;100.00
43770;BME280;6597;52.218;9.882;2023-01-25T04:13:48;102777.66;;;-0.04;100.00
43770;BME280;6597;52.218;9.882;2023-01-25T04:16:16;102778.53;;;-0.03;100.00
43770;BME280;6597;52.218;9.882;2023-01-25T04:19:00;102773.41;;;-0.02;100.00
43770;BME280;6597;52.218;9.882;2023-01-25T04:21:28;102763.38;;;0.05;100.00
43770;BME280;6597;52.218;9.882;2023-01-25T04:23:56;102763.19;;;0.00;100.00
43770;BME280;6597;52.218;9.882;2023-01-25T04:26:22;102763.31;;;0.03;100.00
43770;BME280;6597;52.218;9.882;2023-01-25T04:28:53;102762.97;;;-0.05;100.00
43770;BME280;6597;52.218;9.882;2023-01-25T04:31:20;102756.31;;;0.01;100.00
43770;BME280;6597;52.218;9.882;2023-01-25T04:33:47;102749.19;;;-0.05;100.00
43770;BME280;6597;52.218;9.882;2023-01-25T04:36:15;102751.88;;;-0.02;100.00
43770;BME280;6597;52.218;9.882;2023-01-25T04:38:43;102749.31;;;-0.02;100.00
43770;BME280;6597;52.218;9.882;2023-01-25T04:41:11;102751.88;;;-0.02;100.00
43770;BME280;6597;52.218;9.882;2023-01-25T04:43:37;102745.19;;;0.02;100.00
43770;BME280;6597;52.218;9.882;2023-01-25T04:46:08;102746.66;;;-0.04;100.00
43770;BME280;6597;52.218;9.882;2023-01-25T04:48:34;102741.38;;;-0.07;100.00
43770;BME280;6597;52.218;9.882;2023-01-25T04:51:04;102746.47;;;-0.08;100.00
43770;BME280;6597;52.218;9.882;2023-01-25T04:53:32;102742.16;;;-0.09;100.00
43770;BME280;6597;52.218;9.882;2023-01-25T04:56:00;102748.38;;;-0.04;100.00
43770;BME280;6597;52.218;9.882;2023-01-25T04:58:32;102746.59;;;-0.05;100.00
43770;BME280;6597;52.218;9.882;2023-01-25T05:00:59;102737.97;;;-0.06;100.00
43770;BME280;6597;52.218;9.882;2023-01-25T05:03:27;102739.63;;;-0.08;100.00
43770;BME280;6597;52.218;9.882;2023-01-25T05:05:53;102741.03;;;-0.16;100.00
43770;BME280;6597;52.218;9.882;2023-01-25T05:08:23;102736.03;;;-0.11;100.00
43770;BME280;6597;52.218;9.882;2023-01-25T05:10:52;102736.22;;;-0.07;100.00
43770;BME280;6597;52.218;9.882;2023-01-25T05:13:38;102742.16;;;-0.09;100.00
43770;BME280;6597;52.218;9.882;2023-01-25T05:16:17;102743.97;;;-0.07;100.00
43770;BME280;6597;52.218;9.882;2023-01-25T05:18:43;102735.16;;;-0.12;100.00
43770;BME280;6597;52.218;9.882;2023-01-25T05:21:11;102734.28;;;-0.12;100.00
43770;BME280;6597;52.218;9.882;2023-01-25T05:23:52;102732.28;;;-0.19;100.00
43770;BME280;6597;52.218;9.882;2023-01-25T05:26:19;102725.47;;;-0.17;100.00
43770;BME280;6597;52.218;9.882;2023-01-25T05:29:04;102709.94;;;-0.19;100.00
43770;BME280;6597;52.218;9.882;2023-01-25T05:32:05;102718.44;;;-0.21;100.00
43770;BME280;6597;52.218;9.882;2023-01-25T05:34:32;102713.22;;;-0.23;100.00
43770;BME280;6597;52.218;9.882;2023-01-25T05:36:59;102715.22;;;-0.16;100.00
43770;BME280;6597;52.218;9.882;2023-01-25T05:39:26;102711.88;;;-0.13;100.00
43770;BME280;6597;52.218;9.882;2023-01-25T05:41:55;102708.47;;;-0.12;100.00
43770;BME280;6597;52.218;9.882;2023-01-25T05:44:23;102703.31;;;-0.12;100.00
43770;BME280;6597;52.218;9.882;2023-01-25T05:46:50;102699.19;;;-0.07;100.00
43770;BME280;6597;52.218;9.882;2023-01-25T05:49:18;102703.41;;;-0.09;100.00
43770;BME280;6597;52.218;9.882;2023-01-25T05:51:45;102700.06;;;-0.07;100.00
43770;BME280;6597;52.218;9.882;2023-01-25T05:54:13;102693.16;;;-0.08;100.00
43770;BME280;6597;52.218;9.882;2023-01-25T05:56:44;102693.34;;;-0.03;100.00
43770;BME280;6597;52.218;9.882;2023-01-25T05:59:11;102708.63;;;-0.08;100.00
43770;BME280;6597;52.218;9.882;2023-01-25T06:01:39;102693.34;;;-0.03;100.00
43770;BME280;6597;52.218;9.882;2023-01-25T06:04:06;102698.69;;;0.02;100.00
43770;BME280;6597;52.218;9.882;2023-01-25T06:06:33;102701.13;;;-0.02;100.00
43770;BME280;6597;52.218;9.882;2023-01-25T06:09:00;102706.66;;;-0.15;100.00
43770;BME280;6597;52.218;9.882;2023-01-25T06:11:26;102694.03;;;-0.07;100.00
43770;BME280;6597;52.218;9.882;2023-01-25T06:13:54;102693.09;;;-0.09;100.00
43770;BME280;6597;52.218;9.882;2023-01-25T06:16:20;102694.78;;;-0.10;100.00
43770;BME280;6597;52.218;9.882;2023-01-25T06:19:26;102689.88;;;-0.04;100.00
43770;BME280;6597;52.218;9.882;2023-01-25T06:22:13;102686.69;;;0.02;100.00
43770;BME280;6597;52.218;9.882;2023-01-25T06:24:40;102683.28;;;0.03;100.00
43770;BME280;6597;52.218;9.882;2023-01-25T06:27:06;102681.56;;;0.04;100.00
43770;BME280;6597;52.218;9.882;2023-01-25T06:29:33;102683.44;;;0.08;100.00
43770;BME280;6597;52.218;9.882;2023-01-25T06:32:00;102683.50;;;0.09;100.00
43770;BME280;6597;52.218;9.882;2023-01-25T06:34:27;102685.09;;;0.06;100.00
43770;BME280;6597;52.218;9.882;2023-01-25T06:36:54;102682.38;;;0.03;100.00
43770;BME280;6597;52.218;9.882;2023-01-25T06:39:20;102683.28;;;0.03;100.00
43770;BME280;6597;52.218;9.882;2023-01-25T06:41:47;102683.22;;;0.02;100.00
43770;BME280;6597;52.218;9.882;2023-01-25T06:44:13;102682.56;;;0.07;100.00
43770;BME280;6597;52.218;9.882;2023-01-25T06:46:40;102683.28;;;0.03;100.00
43770;BME280;6597;52.218;9.882;2023-01-25T06:49:06;102681.34;;;-0.01;100.00
43770;BME280;6597;52.218;9.882;2023-01-25T06:51:34;102676.19;;;-0.01;100.00
43770;BME280;6597;52.218;9.882;2023-01-25T06:54:01;102673.72;;;0.01;100.00
43770;BME280;6597;52.218;9.882;2023-01-25T06:56:28;102679.88;;;0.04;100.00
43770;BME280;6597;52.218;9.882;2023-01-25T06:58:57;102678.03;;;0.02;100.00
43770;BME280;6597;52.218;9.882;2023-01-25T07:01:24;102684.97;;;0.03;100.00
43770;BME280;6597;52.218;9.882;2023-01-25T07:03:56;102683.38;;;0.06;100.00
43770;BME280;6597;52.218;9.882;2023-01-25T07:06:23;102680.75;;;0.05;100.00
43770;BME280;6597;52.218;9.882;2023-01-25T07:08:51;102675.63;;;0.06;100.00
43770;BME280;6597;52.218;9.882;2023-01-25T07:11:18;102673.22;;;0.11;100.00
43770;BME280;6597;52.218;9.882;2023-01-25T07:13:46;102672.69;;;0.19;100.00
43770;BME280;6597;52.218;9.882;2023-01-25T07:16:14;102670.94;;;0.18;100.00
43770;BME280;6597;52.218;9.882;2023-01-25T07:18:41;102672.84;;;0.24;100.00
43770;BME280;6597;52.218;9.882;2023-01-25T07:21:11;102673.75;;;0.24;100.00
43770;BME280;6597;52.218;9.882;2023-01-25T07:23:38;102676.38;;;0.26;100.00
43770;BME280;6597;52.218;9.882;2023-01-25T07:26:13;102675.50;;;0.25;100.00
43770;BME280;6597;52.218;9.882;2023-01-25T07:28:40;102671.22;;;0.26;100.00
43770;BME280;6597;52.218;9.882;2023-01-25T07:31:07;102668.69;;;0.27;100.00
43770;BME280;6597;52.218;9.882;2023-01-25T07:33:34;102675.59;;;0.28;100.00
43770;BME280;6597;52.218;9.882;2023-01-25T07:36:02;102662.13;;;0.36;100.00
43770;BME280;6597;52.218;9.882;2023-01-25T07:38:29;102672.56;;;0.39;100.00
43770;BME280;6597;52.218;9.882;2023-01-25T07:40:56;102673.41;;;0.38;100.00
43770;BME280;6597;52.218;9.882;2023-01-25T07:43:24;102674.09;;;0.34;100.00
43770;BME280;6597;52.218;9.882;2023-01-25T07:45:52;102669.94;;;0.37;100.00
43770;BME280;6597;52.218;9.882;2023-01-25T07:48:19;102677.78;;;0.40;100.00
43770;BME280;6597;52.218;9.882;2023-01-25T07:50:46;102675.72;;;0.31;100.00
43770;BME280;6597;52.218;9.882;2023-01-25T07:53:14;102669.56;;;0.28;100.00
43770;BME280;6597;52.218;9.882;2023-01-25T07:55:41;102672.34;;;0.33;100.00
43770;BME280;6597;52.218;9.882;2023-01-25T07:58:09;102668.28;;;0.39;100.00
43770;BME280;6597;52.218;9.882;2023-01-25T08:00:37;102670.81;;;0.38;100.00
43770;BME280;6597;52.218;9.882;2023-01-25T08:03:04;102664.50;;;0.31;100.00
43770;BME280;6597;52.218;9.882;2023-01-25T08:05:32;102664.22;;;0.23;100.00
43770;BME280;6597;52.218;9.882;2023-01-25T08:07:58;102663.41;;;0.24;100.00
43770;BME280;6597;52.218;9.882;2023-01-25T08:10:25;102663.56;;;0.29;100.00
43770;BME280;6597;52.218;9.882;2023-01-25T08:12:51;102665.34;;;0.30;100.00
43770;BME280;6597;52.218;9.882;2023-01-25T08:15:18;102663.41;;;0.24;100.00
43770;BME280;6597;52.218;9.882;2023-01-25T08:17:46;102661.00;;;0.29;100.00
43770;BME280;6597;52.218;9.882;2023-01-25T08:20:12;102666.16;;;0.29;100.00
43770;BME280;6597;52.218;9.882;2023-01-25T08:22:39;102655.88;;;0.30;100.00
43770;BME280;6597;52.218;9.882;2023-01-25T08:25:06;102648.13;;;0.30;100.00
43770;BME280;6597;52.218;9.882;2023-01-25T08:27:33;102654.19;;;0.31;100.00
43770;BME280;6597;52.218;9.882;2023-01-25T08:30:00;102656.75;;;0.31;100.00
43770;BME280;6597;52.218;9.882;2023-01-25T08:32:26;102648.13;;;0.30;100.00
43770;BME280;6597;52.218;9.882;2023-01-25T08:34:54;102646.50;;;0.33;100.00
43770;BME280;6597;52.218;9.882;2023-01-25T08:37:21;102646.44;;;0.31;100.00
43770;BME280;6597;52.218;9.882;2023-01-25T08:39:47;102648.38;;;0.37;100.00
43770;BME280;6597;52.218;9.882;2023-01-25T08:42:14;102643.22;;;0.37;100.00
43770;BME280;6597;52.218;9.882;2023-01-25T08:44:40;102644.00;;;0.34;100.00
43770;BME280;6597;52.218;9.882;2023-01-25T08:47:07;102634.59;;;0.36;100.00
43770;BME280;6597;52.218;9.882;2023-01-25T08:49:33;102638.09;;;0.38;100.00
43770;BME280;6597;52.218;9.882;2023-01-25T08:52:01;102628.81;;;0.43;100.00
43770;BME280;6597;52.218;9.882;2023-01-25T08:54:28;102629.47;;;0.38;100.00
43770;BME280;6597;52.218;9.882;2023-01-25T08:56:54;102624.19;;;0.35;100.00
43770;BME280;6597;52.218;9.882;2023-01-25T08:59:21;102625.97;;;0.36;100.00
43770;BME280;6597;52.218;9.882;2023-01-25T09:01:48;102625.09;;;0.35;100.00
43770;BME280;6597;52.218;9.882;2023-01-25T09:04:15;102623.66;;;0.43;100.00
43770;BME280;6597;52.218;9.882;2023-01-25T09:06:41;102613.19;;;0.40;100.00
43770;BME280;6597;52.218;9.882;2023-01-25T09:09:10;102611.56;;;0.42;100.00
43770;BME280;6597;52.218;9.882;2023-01-25T09:11:37;102613.88;;;0.35;100.00
43770;BME280;6597;52.218;9.882;2023-01-25T09:14:04;102612.31;;;0.40;100.00
43770;BME280;6597;52.218;9.882;2023-01-25T09:16:31;102614.25;;;0.45;100.00
43770;BME280;6597;52.218;9.882;2023-01-25T09:19:00;102619.69;;;0.53;100.00
43770;BME280;6597;52.218;9.882;2023-01-25T09:21:27;102611.81;;;0.50;100.00
43770;BME280;6597;52.218;9.882;2023-01-25T09:23:54;102609.19;;;0.48;100.00
43770;BME280;6597;52.218;9.882;2023-01-25T09:26:22;102604.19;;;0.53;100.00
43770;BME280;6597;52.218;9.882;2023-01-25T09:28:52;102603.97;;;0.47;100.00
43770;BME280;6597;52.218;9.882;2023-01-25T09:31:19;102610.16;;;0.52;100.00
43770;BME280;6597;52.218;9.882;2023-01-25T09:34:04;102618.81;;;0.52;100.00
43770;BME280;6597;52.218;9.882;2023-01-25T09:36:31;102609.97;;;0.46;100.00
43770;BME280;6597;52.218;9.882;2023-01-25T09:38:57;102604.63;;;0.41;100.00
43770;BME280;6597;52.218;9.882;2023-01-25T09:41:46;102593.63;;;0.47;100.00
43770;BME280;6597;52.218;9.882;2023-01-25T09:44:31;102599.84;;;0.52;100.00
43770;BME280;6597;52.218;9.882;2023-01-25T09:47:05;102596.25;;;0.48;100.00
43770;BME280;6597;52.218;9.882;2023-01-25T09:49:48;102586.69;;;0.46;100.00
43770;BME280;6597;52.218;9.882;2023-01-25T09:52:31;102576.38;;;0.46;100.00
43770;BME280;6597;52.218;9.882;2023-01-25T09:55:11;102574.03;;;0.53;100.00
43770;BME280;6597;52.218;9.882;2023-01-25T09:57:41;102564.69;;;0.57;100.00
43770;BME280;6597;52.218;9.882;2023-01-25T10:00:15;102553.47;;;0.56;100.00
43770;BME280;6597;52.218;9.882;2023-01-25T10:02:47;102553.53;;;0.58;100.00
43770;BME280;6597;52.218;9.882;2023-01-25T10:05:18;102548.22;;;0.53;100.00
43770;BME280;6597;52.218;9.882;2023-01-25T10:07:55;102554.88;;;0.47;100.00
43770;BME280;6597;52.218;9.882;2023-01-25T10:10:28;102551.34;;;0.45;100.00
43770;BME280;6597;52.218;9.882;2023-01-25T10:12:57;102554.25;;;0.54;100.00
43770;BME280;6597;52.218;9.882;2023-01-25T10:15:29;102550.75;;;0.52;100.00
43770;BME280;6597;52.218;9.882;2023-01-25T10:18:01;102548.97;;;0.51;100.00
43770;BME280;6597;52.218;9.882;2023-01-25T10:20:34;102540.19;;;0.46;100.00
43770;BME280;6597;52.218;9.882;2023-01-25T10:26:17;102532.75;;;0.55;100.00
43770;BME280;6597;52.218;9.882;2023-01-25T10:28:53;102520.56;;;0.51;100.00
43770;BME280;6597;52.218;9.882;2023-01-25T10:31:28;102523.25;;;0.54;100.00
43770;BME280;6597;52.218;9.882;2023-01-25T10:34:01;102516.31;;;0.53;100.00
43770;BME280;6597;52.218;9.882;2023-01-25T10:36:34;102511.97;;;0.52;100.00
43770;BME280;6597;52.218;9.882;2023-01-25T10:39:01;102503.31;;;0.50;100.00
43770;BME280;6597;52.218;9.882;2023-01-25T10:41:36;102496.91;;;0.39;100.00
43770;BME280;6597;52.218;9.882;2023-01-25T10:44:09;102497.94;;;0.44;100.00
43770;BME280;6597;52.218;9.882;2023-01-25T10:46:55;102494.72;;;0.51;100.00
43770;BME280;6597;52.218;9.882;2023-01-25T10:49:24;102492.13;;;0.51;100.00
43770;BME280;6597;52.218;9.882;2023-01-25T10:51:53;102488.72;;;0.52;100.00
43770;BME280;6597;52.218;9.882;2023-01-25T10:54:22;102488.56;;;0.47;100.00
43770;BME280;6597;52.218;9.882;2023-01-25T10:56:49;102482.31;;;0.41;100.00
43770;BME280;6597;52.218;9.882;2023-01-25T10:59:20;102483.22;;;0.41;100.00
43770;BME280;6597;52.218;9.882;2023-01-25T11:01:48;102483.94;;;0.37;100.00
43770;BME280;6597;52.218;9.882;2023-01-25T11:04:29;102475.41;;;0.40;100.00
43770;BME280;6597;52.218;9.882;2023-01-25T11:06:57;102467.84;;;0.46;100.00
43770;BME280;6597;52.218;9.882;2023-01-25T11:09:33;102457.03;;;0.57;100.00
43770;BME280;6597;52.218;9.882;2023-01-25T11:12:01;102463.09;;;0.58;100.00
43770;BME280;6597;52.218;9.882;2023-01-25T11:14:31;102456.69;;;0.47;100.00
43770;BME280;6597;52.218;9.882;2023-01-25T11:16:59;102453.13;;;0.43;100.00
43770;BME280;6597;52.218;9.882;2023-01-25T11:19:31;102433.69;;;0.54;100.00
43770;BME280;6597;52.218;9.882;2023-01-25T11:21:59;102445.63;;;0.51;100.00
43770;BME280;6597;52.218;9.882;2023-01-25T11:24:27;102440.41;;;0.49;100.00
43770;BME280;6597;52.218;9.882;2023-01-25T11:27:17;102437.69;;;0.45;100.00
43770;BME280;6597;52.218;9.882;2023-01-25T11:30:05;102429.06;;;0.44;100.00
43770;BME280;6597;52.218;9.882;2023-01-25T11:32:33;102428.28;;;0.47;100.00
43770;BME280;6597;52.218;9.882;2023-01-25T11:34:59;102425.06;;;0.54;100.00
43770;BME280;6597;52.218;9.882;2023-01-25T11:37:34;102423.00;;;0.44;100.00
43770;BME280;6597;52.218;9.882;2023-01-25T11:40:13;102412.78;;;0.47;100.00
43770;BME280;6597;52.218;9.882;2023-01-25T11:42:48;102413.75;;;0.50;100.00
43770;BME280;6597;52.218;9.882;2023-01-25T11:45:50;102412.13;;;0.54;100.00
43770;BME280;6597;52.218;9.882;2023-01-25T11:48:37;102397.66;;;0.59;100.00
43770;BME280;6597;52.218;9.882;2023-01-25T11:51:14;102379.31;;;0.51;100.00
43770;BME280;6597;52.218;9.882;2023-01-25T11:53:54;102376.00;;;0.55;100.00
43770;BME280;6597;52.218;9.882;2023-01-25T11:56:30;102374.34;;;0.57;100.00
43770;BME280;6597;52.218;9.882;2023-01-25T11:59:15;102377.81;;;0.58;100.00
43770;BME280;6597;52.218;9.882;2023-01-25T12:01:57;102377.84;;;0.59;100.00
43770;BME280;6597;52.218;9.882;2023-01-25T12:04:49;102370.19;;;0.62;100.00
43770;BME280;6597;52.218;9.882;2023-01-25T12:07:23;102364.19;;;0.63;100.00
43770;BME280;6597;52.218;9.882;2023-01-25T12:10:11;102359.09;;;0.65;100.00
43770;BME280;6597;52.218;9.882;2023-01-25T12:12:48;102350.88;;;0.78;100.00
43770;BME280;6597;52.218;9.882;2023-01-25T12:15:29;102346.31;;;0.70;100.00
43770;BME280;6597;52.218;9.882;2023-01-25T12:18:13;102332.25;;;0.61;100.00
43770;BME280;6597;52.218;9.882;2023-01-25T12:21:01;102318.16;;;0.50;100.00
43770;BME280;6597;52.218;9.882;2023-01-25T12:23:40;102308.47;;;0.43;100.00
43770;BME280;6597;52.218;9.882;2023-01-25T12:26:18;102304.25;;;0.47;100.00
43770;BME280;6597;52.218;9.882;2023-01-25T12:28:49;102302.78;;;0.55;100.00
43770;BME280;6597;52.218;9.882;2023-01-25T12:31:20;102300.00;;;0.49;100.00
43770;BME280;6597;52.218;9.882;2023-01-25T12:33:53;102306.84;;;0.47;100.00
43770;BME280;6597;52.218;9.882;2023-01-25T12:36:26;102295.03;;;0.55;100.00
43770;BME280;6597;52.218;9.882;2023-01-25T12:38:59;102288.03;;;0.51;100.00
43770;BME280;6597;52.218;9.882;2023-01-25T12:41:32;102277.38;;;0.13;100.00
43770;BME280;6597;52.218;9.882;2023-01-25T12:44:07;102264.84;;;0.25;100.00
43770;BME280;6597;52.218;9.882;2023-01-25T12:46:40;102271.38;;;0.41;100.00
43770;BME280;6597;52.218;9.882;2023-01-25T12:49:16;102273.34;;;0.50;100.00
43770;BME280;6597;52.218;9.882;2023-01-25T12:51:44;102271.72;;;0.53;100.00
43770;BME280;6597;52.218;9.882;2023-01-25T12:54:17;102260.59;;;0.56;100.00
43770;BME280;6597;52.218;9.882;2023-01-25T12:56:48;102257.97;;;0.54;100.00
43770;BME280;6597;52.218;9.882;2023-01-25T12:59:27;102243.25;;;0.52;100.00
43770;BME280;6597;52.218;9.882;2023-01-25T13:02:03;102237.88;;;0.44;100.00
43770;BME280;6597;52.218;9.882;2023-01-25T13:04:47;102235.34;;;0.46;100.00
43770;BME280;6597;52.218;9.882;2023-01-25T13:07:21;102242.16;;;0.44;100.00
43770;BME280;6597;52.218;9.882;2023-01-25T13:09:57;102226.81;;;0.48;100.00
43770;BME280;6597;52.218;9.882;2023-01-25T13:12:24;102216.41;;;0.47;100.00
43770;BME280;6597;52.218;9.882;2023-01-25T13:14:51;102205.22;;;0.46;100.00
43770;BME280;6597;52.218;9.882;2023-01-25T13:17:21;102198.25;;;0.44;100.00
43770;BME280;6597;52.218;9.882;2023-01-25T13:19:50;102193.16;;;0.47;100.00